Time;durP1;ratioP1;P1;durP2;ratioP2;P2;SDS_P1;SDS_P2;PMS_P1;PMS_P2;Temp;Humidity;BMP_temperature;BMP_pressure;BME280_temperature;BME280_humidity;BME280_pressure;Samples;Min_cycle;Max_cycle;Signal;HPM_P1;HPM_P2
2022/06/30 00:02:07;;;;;;;5.23;4.30;;;20.30;99.90;;;;;;5036771;28;20185;-85
2022/06/30 00:04:33;;;;;;;4.60;4.15;;;20.30;99.90;;;;;;5035782;28;20202;-85
2022/06/30 00:06:59;;;;;;;4.73;4.27;;;20.30;99.90;;;;;;5036106;28;20170;-85
2022/06/30 00:09:25;;;;;;;4.68;4.28;;;20.20;99.90;;;;;;5036187;28;20174;-85
2022/06/30 00:11:50;;;;;;;7.28;5.35;;;20.10;99.90;;;;;;5037280;28;20653;-85
2022/06/30 00:14:16;;;;;;;6.00;3.95;;;20.10;99.90;;;;;;5036506;28;20174;-85
2022/06/30 00:16:42;;;;;;;5.05;4.38;;;20.10;99.90;;;;;;5035896;28;20523;-85
2022/06/30 00:19:08;;;;;;;4.90;4.47;;;20.10;99.90;;;;;;5036907;28;20241;-85
2022/06/30 00:21:34;;;;;;;5.13;4.50;;;20.10;99.90;;;;;;5038095;28;20578;-85
2022/06/30 00:23:59;;;;;;;5.55;4.28;;;19.90;99.90;;;;;;5036744;28;20202;-85
2022/06/30 00:26:25;;;;;;;9.15;4.35;;;19.70;99.90;;;;;;5036242;28;20631;-85
2022/06/30 00:28:51;;;;;;;6.75;4.38;;;19.80;99.90;;;;;;5036315;28;20166;-85
2022/06/30 00:31:17;;;;;;;6.27;4.90;;;19.80;99.90;;;;;;5035986;28;20212;-85
2022/06/30 00:33:42;;;;;;;5.37;4.63;;;19.80;99.90;;;;;;5036503;28;20201;-85
2022/06/30 00:36:08;;;;;;;8.77;4.87;;;19.80;99.90;;;;;;5037372;28;20269;-85
2022/06/30 00:38:34;;;;;;;5.30;4.80;;;19.80;99.90;;;;;;5036379;28;20188;-85
2022/06/30 00:40:59;;;;;;;6.00;4.72;;;19.80;99.90;;;;;;5035998;28;20181;-85
2022/06/30 00:43:25;;;;;;;7.47;5.03;;;19.70;99.90;;;;;;5036698;28;20202;-85
2022/06/30 00:45:51;;;;;;;8.98;4.97;;;19.70;99.90;;;;;;5035527;28;20267;-85
2022/06/30 00:48:18;;;;;;;8.13;4.95;;;19.60;99.90;;;;;;5036676;28;20167;-85
2022/06/30 00:50:44;;;;;;;6.03;4.68;;;19.60;99.90;;;;;;5035879;28;20177;-85
2022/06/30 00:53:11;;;;;;;6.53;4.80;;;19.50;99.90;;;;;;5036574;28;20194;-85
2022/06/30 00:55:37;;;;;;;5.20;4.47;;;19.50;99.90;;;;;;5038804;28;20181;-85
2022/06/30 00:58:06;;;;;;;6.72;4.90;;;19.50;99.90;;;;;;5037850;28;20174;-85
2022/06/30 01:00:39;;;;;;;10.27;5.77;;;19.40;99.90;;;;;;5036336;28;20209;-85
2022/06/30 01:03:09;;;;;;;8.10;5.10;;;19.30;99.90;;;;;;5037800;28;20201;-85
2022/06/30 01:05:35;;;;;;;5.20;4.53;;;19.30;99.90;;;;;;5037194;28;20177;-85
2022/06/30 01:08:02;;;;;;;14.00;6.07;;;19.30;99.90;;;;;;5033274;28;20181;-86
2022/06/30 01:13:12;;;;;;;7.63;5.60;;;19.30;99.90;;;;;;5034608;28;20694;-85
2022/06/30 01:15:38;;;;;;;12.40;6.03;;;19.20;99.90;;;;;;5035232;28;20174;-85
2022/06/30 01:18:04;;;;;;;9.37;5.40;;;19.10;99.90;;;;;;5035543;28;20174;-85
2022/06/30 01:20:32;;;;;;;11.80;5.90;;;19.10;99.90;;;;;;5036368;28;20181;-85
2022/06/30 01:23:00;;;;;;;9.90;5.77;;;19.00;99.90;;;;;;5037483;28;20209;-85
2022/06/30 01:25:25;;;;;;;10.90;5.67;;;19.00;99.90;;;;;;5035621;28;20301;-85
2022/06/30 01:27:52;;;;;;;9.17;6.20;;;19.00;99.90;;;;;;5034559;28;20660;-86
2022/06/30 01:30:18;;;;;;;9.07;5.50;;;19.10;99.90;;;;;;5035481;28;20176;-85
2022/06/30 01:32:44;;;;;;;8.90;5.47;;;19.00;99.90;;;;;;5036243;28;20565;-85
2022/06/30 01:35:10;;;;;;;12.80;6.53;;;19.00;99.90;;;;;;5034342;28;20162;-85
2022/06/30 01:37:56;;;;;;;9.17;6.17;;;19.10;99.90;;;;;;5033851;28;20622;-85
2022/06/30 01:40:25;;;;;;;8.43;6.03;;;19.00;99.90;;;;;;5035109;28;20166;-85
2022/06/30 01:42:51;;;;;;;9.37;6.20;;;18.90;99.90;;;;;;5036642;28;20194;-85
2022/06/30 01:45:18;;;;;;;10.43;5.77;;;19.00;99.90;;;;;;5036162;28;20285;-85
2022/06/30 01:47:44;;;;;;;8.33;5.80;;;19.00;99.90;;;;;;5035457;28;20182;-85
2022/06/30 01:50:18;;;;;;;9.63;6.03;;;18.90;99.90;;;;;;5031812;28;20174;-86
2022/06/30 01:52:44;;;;;;;11.50;5.87;;;18.90;99.90;;;;;;5031887;28;20228;-87
2022/06/30 01:55:10;;;;;;;6.73;6.00;;;18.80;99.90;;;;;;5031579;28;20256;-86
2022/06/30 01:57:37;;;;;;;7.47;6.30;;;18.80;99.90;;;;;;5031617;28;20171;-86
2022/06/30 02:00:06;;;;;;;8.47;6.30;;;18.80;99.90;;;;;;5031510;28;20174;-85
2022/06/30 02:02:31;;;;;;;7.23;6.13;;;18.80;99.90;;;;;;5031576;28;20573;-85
2022/06/30 02:04:57;;;;;;;9.20;6.40;;;18.80;99.90;;;;;;5031185;28;20198;-85
2022/06/30 02:07:23;;;;;;;13.33;6.73;;;18.80;99.90;;;;;;5031055;28;20166;-86
2022/06/30 02:09:53;;;;;;;11.80;7.00;;;18.80;99.90;;;;;;5032303;28;20174;-85
2022/06/30 02:15:06;;;;;;;8.43;6.40;;;18.90;99.90;;;;;;5032474;28;20227;-85
2022/06/30 02:17:32;;;;;;;9.47;6.27;;;18.80;99.90;;;;;;5031041;28;20555;-85
2022/06/30 02:19:57;;;;;;;10.73;6.33;;;18.60;99.90;;;;;;5031049;28;20182;-86
2022/06/30 02:22:23;;;;;;;13.23;6.37;;;18.70;99.90;;;;;;5032021;28;20197;-85
2022/06/30 02:24:49;;;;;;;9.60;7.10;;;18.70;99.90;;;;;;5032206;28;20653;-85
2022/06/30 02:27:14;;;;;;;8.00;6.50;;;18.60;99.90;;;;;;5031296;28;20542;-86
2022/06/30 02:29:40;;;;;;;9.10;6.60;;;18.50;99.90;;;;;;5032103;28;20200;-85
2022/06/30 02:32:06;;;;;;;9.07;6.87;;;18.60;99.90;;;;;;5031207;28;20182;-86
2022/06/30 02:34:32;;;;;;;9.07;7.50;;;18.60;99.90;;;;;;5031639;28;20181;-85
2022/06/30 02:36:58;;;;;;;10.03;6.90;;;18.50;99.90;;;;;;5032453;28;20192;-85
2022/06/30 02:39:24;;;;;;;13.87;6.77;;;18.50;99.90;;;;;;5031328;28;20184;-85
2022/06/30 02:41:50;;;;;;;9.87;6.83;;;18.50;99.90;;;;;;5031512;28;20173;-86
2022/06/30 02:44:15;;;;;;;9.67;7.03;;;18.50;99.90;;;;;;5032180;28;20756;-85
2022/06/30 02:46:41;;;;;;;8.90;7.27;;;18.60;99.90;;;;;;5032658;28;20178;-85
2022/06/30 02:49:07;;;;;;;9.80;7.37;;;18.50;99.90;;;;;;5031485;28;20207;-85
2022/06/30 02:51:33;;;;;;;7.73;6.87;;;18.40;99.90;;;;;;5032266;28;20538;-85
2022/06/30 02:53:59;;;;;;;8.70;7.47;;;18.30;99.90;;;;;;5035821;28;20194;-85
2022/06/30 02:56:24;;;;;;;12.60;7.73;;;18.20;99.90;;;;;;5036231;28;20840;-85
2022/06/30 02:58:50;;;;;;;8.30;7.33;;;18.20;99.90;;;;;;5036178;28;20243;-85
2022/06/30 03:01:16;;;;;;;10.20;7.93;;;18.20;99.90;;;;;;5034600;28;20314;-85
2022/06/30 03:03:42;;;;;;;8.87;7.53;;;18.20;99.90;;;;;;5040002;28;20388;-85
2022/06/30 03:06:07;;;;;;;11.33;7.93;;;18.20;99.90;;;;;;5038005;28;20231;-85
2022/06/30 03:08:33;;;;;;;13.73;7.67;;;18.20;99.90;;;;;;5038210;28;20197;-85
2022/06/30 03:10:59;;;;;;;11.37;8.03;;;18.20;99.90;;;;;;5037016;28;20205;-85
2022/06/30 03:13:25;;;;;;;10.30;8.53;;;18.10;99.90;;;;;;5037122;28;20739;-86
2022/06/30 03:15:51;;;;;;;11.73;8.30;;;18.00;99.90;;;;;;5034911;28;20182;-85
2022/06/30 03:18:17;;;;;;;13.17;8.43;;;18.10;99.90;;;;;;5034603;28;20178;-85
2022/06/30 03:20:43;;;;;;;10.07;8.10;;;18.10;99.90;;;;;;5034733;28;20235;-85
2022/06/30 03:23:08;;;;;;;12.07;8.50;;;18.10;99.90;;;;;;5034443;28;20225;-85
2022/06/30 03:25:34;;;;;;;13.70;8.13;;;18.00;99.90;;;;;;5034554;28;20188;-85
2022/06/30 03:28:00;;;;;;;8.80;7.90;;;18.00;99.90;;;;;;5034381;28;20174;-85
2022/06/30 03:30:26;;;;;;;15.40;9.60;;;18.00;99.90;;;;;;5034051;28;20309;-85
2022/06/30 03:32:52;;;;;;;8.93;8.03;;;18.00;99.90;;;;;;5034647;28;20202;-85
2022/06/30 03:35:18;;;;;;;13.27;9.33;;;18.00;99.90;;;;;;5034380;28;20561;-85
2022/06/30 03:37:44;;;;;;;12.43;7.87;;;17.90;99.90;;;;;;5034215;28;20280;-84
2022/06/30 03:40:10;;;;;;;11.73;8.53;;;18.00;99.90;;;;;;5034179;28;20835;-85
2022/06/30 03:42:36;;;;;;;11.17;7.80;;;18.10;99.90;;;;;;5034155;28;20202;-86
2022/06/30 03:45:03;;;;;;;9.73;7.87;;;18.00;99.90;;;;;;5033879;28;20218;-86
2022/06/30 03:47:28;;;;;;;12.50;8.50;;;18.00;99.90;;;;;;5034110;28;20209;-86
2022/06/30 03:49:54;;;;;;;10.70;8.40;;;17.90;99.90;;;;;;5033989;28;20216;-85
2022/06/30 03:52:19;;;;;;;13.13;8.50;;;17.90;99.90;;;;;;5033802;28;20203;-85
2022/06/30 03:54:45;;;;;;;12.97;9.17;;;17.90;99.90;;;;;;5033879;28;20182;-85
2022/06/30 03:57:11;;;;;;;13.67;8.53;;;17.90;99.90;;;;;;5033714;28;20648;-86
2022/06/30 03:59:37;;;;;;;9.67;8.20;;;18.00;99.90;;;;;;5033870;28;20178;-86
2022/06/30 04:02:04;;;;;;;13.10;9.00;;;18.00;99.90;;;;;;5033769;28;20189;-86
2022/06/30 04:04:29;;;;;;;11.40;8.90;;;18.00;99.90;;;;;;5033672;28;20202;-86
2022/06/30 04:06:55;;;;;;;11.93;9.17;;;18.00;99.90;;;;;;5033663;28;20178;-86
2022/06/30 04:09:21;;;;;;;12.00;8.87;;;18.00;99.90;;;;;;5033840;28;20216;-86
2022/06/30 04:11:46;;;;;;;10.50;9.33;;;18.10;99.90;;;;;;5034739;28;20174;-86
2022/06/30 04:14:12;;;;;;;11.50;9.00;;;18.30;99.90;;;;;;5032738;28;20205;-86
2022/06/30 04:16:38;;;;;;;14.57;9.00;;;18.20;99.90;;;;;;5033795;28;20178;-86
2022/06/30 04:19:03;;;;;;;12.30;8.33;;;18.30;99.90;;;;;;5033385;28;20181;-86
2022/06/30 04:21:29;;;;;;;10.30;8.60;;;18.40;99.90;;;;;;5033235;28;20166;-86
2022/06/30 04:23:55;;;;;;;10.87;9.20;;;18.50;99.90;;;;;;5033479;28;20701;-86
2022/06/30 04:26:20;;;;;;;12.10;8.37;;;18.50;99.90;;;;;;5033328;28;20170;-86
2022/06/30 04:28:46;;;;;;;11.90;8.80;;;18.60;99.90;;;;;;5033564;28;20680;-87
2022/06/30 04:33:56;;;;;;;19.93;8.40;;;18.80;99.90;;;;;;5036699;28;20205;-86
2022/06/30 04:36:22;;;;;;;11.53;8.27;;;19.00;99.90;;;;;;5035277;28;20209;-86
2022/06/30 04:38:48;;;;;;;11.93;7.77;;;19.20;99.90;;;;;;5034933;28;20186;-87
2022/06/30 04:41:25;;;;;;;8.20;7.22;;;19.40;99.90;;;;;;5032855;28;20178;-86
2022/06/30 04:43:56;;;;;;;11.40;7.13;;;20.20;99.90;;;;;;5033541;28;20233;-87
2022/06/30 04:46:23;;;;;;;10.13;6.70;;;20.30;99.90;;;;;;5033236;28;20170;-87
2022/06/30 04:48:49;;;;;;;13.63;7.13;;;20.20;99.90;;;;;;5033154;28;20170;-86
2022/06/30 04:51:15;;;;;;;12.38;7.10;;;20.40;99.90;;;;;;5034120;28;20730;-87
2022/06/30 04:53:41;;;;;;;9.15;6.00;;;20.80;99.90;;;;;;5034071;28;20198;-87
2022/06/30 04:56:08;;;;;;;12.07;6.47;;;20.70;99.90;;;;;;5033008;28;20170;-86
2022/06/30 04:58:34;;;;;;;11.15;7.10;;;21.10;99.90;;;;;;5032891;28;20186;-88
2022/06/30 05:01:01;;;;;;;8.63;6.80;;;21.30;99.90;;;;;;5033076;28;20192;-86
2022/06/30 05:03:27;;;;;;;9.07;6.47;;;20.90;99.90;;;;;;5033509;28;20198;-86
2022/06/30 05:05:53;;;;;;;8.43;6.65;;;21.10;99.90;;;;;;5032377;28;20224;-87
2022/06/30 05:08:19;;;;;;;7.95;7.07;;;21.20;99.90;;;;;;5032589;28;20174;-86
2022/06/30 05:10:45;;;;;;;10.35;8.00;;;21.10;99.90;;;;;;5032515;28;20236;-87
2022/06/30 05:13:11;;;;;;;8.40;7.40;;;21.20;99.90;;;;;;5032629;28;20710;-85
2022/06/30 05:15:36;;;;;;;10.65;7.57;;;21.20;99.90;;;;;;5031898;28;20216;-89
2022/06/30 05:18:02;;;;;;;12.20;7.10;;;21.00;99.90;;;;;;5032436;28;20174;-87
2022/06/30 05:20:28;;;;;;;12.35;7.72;;;21.40;99.90;;;;;;5032921;28;20189;-87
2022/06/30 05:22:54;;;;;;;9.27;7.78;;;21.40;99.90;;;;;;5032648;28;20340;-86
2022/06/30 05:28:04;;;;;;;12.90;6.75;;;21.10;99.90;;;;;;5033974;28;20165;-87
2022/06/30 05:30:29;;;;;;;13.30;6.88;;;21.70;99.90;;;;;;5032328;28;20170;-86
2022/06/30 05:32:56;;;;;;;11.95;7.55;;;22.10;99.90;;;;;;5031968;28;20216;-87
2022/06/30 05:35:21;;;;;;;10.90;7.43;;;22.30;99.90;;;;;;5032127;28;20181;-87
2022/06/30 05:37:48;;;;;;;8.65;6.93;;;22.10;99.90;;;;;;5031999;28;20575;-86
2022/06/30 05:40:13;;;;;;;10.05;7.30;;;22.20;99.90;;;;;;5031962;28;20300;-87
2022/06/30 05:42:39;;;;;;;9.68;7.50;;;22.40;99.90;;;;;;5032775;28;20238;-87
2022/06/30 05:45:05;;;;;;;8.20;7.10;;;22.50;99.90;;;;;;5032212;28;20211;-87
2022/06/30 05:47:31;;;;;;;8.32;7.43;;;22.40;99.90;;;;;;5031849;28;20165;-87
2022/06/30 05:49:56;;;;;;;10.73;7.45;;;22.50;99.90;;;;;;5032458;28;20174;-87
2022/06/30 05:52:22;;;;;;;8.48;6.43;;;22.70;99.90;;;;;;5031977;28;20284;-87
2022/06/30 05:54:48;;;;;;;7.70;7.00;;;23.20;99.90;;;;;;5031560;28;20174;-87
2022/06/30 05:57:14;;;;;;;13.45;7.55;;;23.00;99.90;;;;;;5031792;28;20169;-87
2022/06/30 05:59:40;;;;;;;10.68;7.15;;;23.20;99.90;;;;;;5031717;28;20223;-86
2022/06/30 06:02:06;;;;;;;8.88;6.65;;;23.60;99.90;;;;;;5044248;28;20890;-86
2022/06/30 06:04:32;;;;;;;7.85;7.05;;;23.20;99.90;;;;;;5035234;28;20193;-86
2022/06/30 06:06:57;;;;;;;11.75;7.03;;;23.60;99.90;;;;;;5033377;28;20181;-86
2022/06/30 06:09:24;;;;;;;9.25;6.00;;;23.80;99.90;;;;;;5035286;28;20264;-88
2022/06/30 06:11:50;;;;;;;8.20;6.63;;;24.50;99.90;;;;;;5035216;28;20166;-84
2022/06/30 06:14:15;;;;;;;7.53;6.72;;;24.60;99.90;;;;;;5033300;28;20177;-84
2022/06/30 06:16:41;;;;;;;8.20;7.32;;;24.20;99.90;;;;;;5037169;28;20169;-86
2022/06/30 06:19:07;;;;;;;19.20;6.85;;;24.40;99.90;;;;;;5034782;28;20721;-84
2022/06/30 06:21:36;;;;;;;9.57;7.13;;;24.60;99.90;;;;;;5032015;28;20213;-85
2022/06/30 06:24:01;;;;;;;8.60;6.80;;;23.90;99.90;;;;;;5031447;28;20202;-87
2022/06/30 06:26:27;;;;;;;9.32;6.82;;;24.30;99.90;;;;;;5032894;28;20223;-86
2022/06/30 06:29:08;;;;;;;9.85;6.60;;;25.10;99.90;;;;;;5036732;28;20292;-85
2022/06/30 06:31:38;;;;;;;7.75;6.55;;;25.50;99.90;;;;;;5037976;28;20599;-83
2022/06/30 06:34:04;;;;;;;9.18;6.55;;;25.30;99.90;;;;;;5040283;28;20225;-83
2022/06/30 06:36:30;;;;;;;7.43;6.72;;;25.70;99.90;;;;;;5039609;28;20181;-83
2022/06/30 06:38:57;;;;;;;8.70;7.78;;;25.80;99.90;;;;;;5038728;28;20174;-83
2022/06/30 06:41:24;;;;;;;8.60;6.50;;;25.50;99.90;;;;;;5037917;28;20669;-83
2022/06/30 06:43:52;;;;;;;10.23;6.78;;;25.70;99.90;;;;;;5036581;28;20237;-83
2022/06/30 06:46:19;;;;;;;9.70;6.85;;;25.70;99.90;;;;;;5039921;28;20189;-83
2022/06/30 06:48:45;;;;;;;13.68;7.07;;;25.10;99.90;;;;;;5043441;28;20170;-83
2022/06/30 06:51:11;;;;;;;7.28;6.55;;;26.20;99.90;;;;;;5040702;28;20181;-83
2022/06/30 06:53:37;;;;;;;7.57;6.88;;;25.90;99.90;;;;;;5041946;28;20194;-84
2022/06/30 06:56:04;;;;;;;8.95;6.75;;;26.50;99.90;;;;;;5037102;28;20178;-84
2022/06/30 06:58:30;;;;;;;10.35;7.10;;;26.50;99.90;;;;;;5038376;28;20178;-84
2022/06/30 07:00:56;;;;;;;8.60;6.95;;;26.70;99.90;;;;;;5038314;28;20178;-84
2022/06/30 07:03:25;;;;;;;8.13;7.22;;;27.10;99.90;;;;;;5034659;28;20571;-85
2022/06/30 07:05:50;;;;;;;12.48;7.60;;;26.90;99.90;;;;;;5032408;28;20209;-84
2022/06/30 07:08:16;;;;;;;9.85;6.93;;;26.60;99.90;;;;;;5033236;28;20170;-84
2022/06/30 07:10:41;;;;;;;8.00;6.72;;;27.20;99.90;;;;;;5034985;28;20170;-84
2022/06/30 07:13:07;;;;;;;11.48;7.53;;;27.30;99.90;;;;;;5034462;28;20585;-84
2022/06/30 07:15:33;;;;;;;8.90;7.97;;;27.50;99.90;;;;;;5033430;28;20177;-84
2022/06/30 07:18:02;;;;;;;9.80;7.57;;;27.20;99.90;;;;;;5032880;28;20626;-84
2022/06/30 07:20:28;;;;;;;8.02;6.97;;;27.10;99.90;;;;;;5032051;28;20177;-84
2022/06/30 07:22:54;;;;;;;8.43;7.50;;;28.00;99.90;;;;;;5034498;28;20190;-84
2022/06/30 07:25:20;;;;;;;7.05;6.35;;;28.30;99.90;;;;;;5039170;28;20260;-84
2022/06/30 07:27:45;;;;;;;8.88;7.63;;;28.00;99.90;;;;;;5037930;28;20545;-84
2022/06/30 07:30:11;;;;;;;11.70;8.15;;;28.40;99.90;;;;;;5033316;28;20629;-84
2022/06/30 07:32:37;;;;;;;7.50;6.70;;;28.50;99.90;;;;;;5032895;28;20190;-84
2022/06/30 07:35:05;;;;;;;8.73;7.05;;;28.50;99.90;;;;;;5032540;28;20248;-84
2022/06/30 07:37:30;;;;;;;8.77;7.22;;;28.00;99.90;;;;;;5032015;28;20564;-84
2022/06/30 07:39:56;;;;;;;17.02;7.05;;;27.60;99.90;;;;;;5033669;28;20276;-84
2022/06/30 07:42:22;;;;;;;8.55;7.43;;;28.40;99.90;;;;;;5032465;28;20288;-84
2022/06/30 07:44:47;;;;;;;9.43;8.43;;;28.20;99.90;;;;;;5031319;28;20202;-84
2022/06/30 07:47:14;;;;;;;7.97;7.15;;;27.70;99.90;;;;;;5032412;28;20175;-84
2022/06/30 07:49:40;;;;;;;11.25;7.65;;;29.10;99.90;;;;;;5037035;28;20531;-84
2022/06/30 07:52:06;;;;;;;12.30;7.25;;;28.70;99.90;;;;;;5036534;28;20631;-84
2022/06/30 07:54:32;;;;;;;10.80;7.57;;;28.60;99.90;;;;;;5036336;28;20182;-85
2022/06/30 07:56:58;;;;;;;8.35;7.53;;;28.70;99.90;;;;;;5035664;28;20309;-84
2022/06/30 07:59:24;;;;;;;8.63;6.80;;;28.80;99.90;;;;;;5036096;28;20182;-84
2022/06/30 08:01:50;;;;;;;9.23;7.43;;;29.60;99.90;;;;;;5036202;28;20173;-84
2022/06/30 08:04:17;;;;;;;11.07;7.25;;;29.80;99.10;;;;;;5037033;28;20198;-84
2022/06/30 08:06:43;;;;;;;9.63;7.10;;;29.20;99.90;;;;;;5037039;28;20197;-84
2022/06/30 08:09:09;;;;;;;8.40;7.15;;;29.40;99.00;;;;;;5037448;28;20446;-84
2022/06/30 08:11:35;;;;;;;13.23;7.95;;;29.50;99.20;;;;;;5036736;28;20174;-84
2022/06/30 08:14:00;;;;;;;9.20;7.05;;;28.90;99.00;;;;;;5037127;28;20655;-84
2022/06/30 08:16:26;;;;;;;9.57;7.43;;;29.60;99.10;;;;;;5037646;28;20270;-84
2022/06/30 08:18:52;;;;;;;9.80;7.18;;;29.20;99.00;;;;;;5036833;28;20591;-84
2022/06/30 08:21:17;;;;;;;9.18;6.55;;;29.80;98.80;;;;;;5037226;28;20646;-84
2022/06/30 08:23:43;;;;;;;7.82;6.63;;;30.20;98.10;;;;;;5037420;28;20705;-84
2022/06/30 08:26:09;;;;;;;12.02;7.20;;;30.60;97.20;;;;;;5036116;28;20201;-85
2022/06/30 08:28:34;;;;;;;11.45;7.00;;;30.20;97.80;;;;;;5034158;28;20183;-85
2022/06/30 08:31:01;;;;;;;8.32;6.85;;;30.10;97.90;;;;;;5035287;28;20178;-85
2022/06/30 08:33:27;;;;;;;15.32;6.90;;;29.90;97.50;;;;;;5035245;28;20190;-85
2022/06/30 08:35:53;;;;;;;13.57;6.72;;;29.70;98.30;;;;;;5035439;28;20268;-85
2022/06/30 08:38:18;;;;;;;11.18;7.15;;;30.20;97.00;;;;;;5041346;28;20173;-84
2022/06/30 08:43:33;;;;;;;11.63;7.03;;;29.80;96.60;;;;;;5045428;28;20236;-85
2022/06/30 08:46:03;;;;;;;7.15;6.32;;;30.20;96.40;;;;;;5036579;28;20190;-85
2022/06/30 08:48:29;;;;;;;9.20;6.40;;;31.20;96.40;;;;;;5036402;28;20622;-84
2022/06/30 08:51:03;;;;;;;8.98;7.07;;;31.30;95.90;;;;;;5036802;28;20196;-85
2022/06/30 08:53:36;;;;;;;7.30;6.60;;;30.40;96.30;;;;;;5037842;28;20201;-84
2022/06/30 08:56:03;;;;;;;10.05;5.95;;;30.70;95.90;;;;;;5038271;28;20178;-85
2022/06/30 08:58:29;;;;;;;10.18;6.63;;;30.70;95.90;;;;;;5039895;28;20236;-85
2022/06/30 09:00:55;;;;;;;11.48;6.28;;;30.90;95.40;;;;;;5038923;28;20178;-84
2022/06/30 09:03:21;;;;;;;6.82;6.15;;;31.30;94.80;;;;;;5038907;28;20544;-84
2022/06/30 09:05:47;;;;;;;7.80;6.28;;;31.00;95.10;;;;;;5041855;28;20182;-84
2022/06/30 09:08:13;;;;;;;8.50;6.25;;;30.70;94.10;;;;;;5040848;28;20184;-84
2022/06/30 09:10:51;;;;;;;7.20;6.30;;;31.30;93.30;;;;;;5040672;28;20631;-85
2022/06/30 09:13:17;;;;;;;7.00;6.28;;;31.20;94.00;;;;;;5041614;28;20200;-84
2022/06/30 09:15:43;;;;;;;6.97;5.75;;;31.80;93.40;;;;;;5041532;28;20627;-85
2022/06/30 09:18:30;;;;;;;11.02;6.90;;;31.00;92.60;;;;;;5038451;28;20185;-84
2022/06/30 09:20:58;;;;;;;7.18;6.45;;;31.80;92.70;;;;;;5035789;28;20178;-85
2022/06/30 09:23:25;;;;;;;8.75;6.25;;;31.80;92.20;;;;;;5036020;28;20224;-85
2022/06/30 09:25:54;;;;;;;9.43;5.75;;;31.90;91.90;;;;;;5036347;28;20185;-85
2022/06/30 09:28:43;;;;;;;16.83;5.88;;;31.00;93.80;;;;;;5036977;28;20170;-85
2022/06/30 09:31:14;;;;;;;9.40;5.47;;;32.30;93.50;;;;;;5036136;28;20267;-85
2022/06/30 09:33:44;;;;;;;8.68;5.70;;;32.70;91.50;;;;;;5034400;28;20193;-86
2022/06/30 09:36:28;;;;;;;12.02;6.32;;;32.80;91.40;;;;;;5035423;28;20185;-85
2022/06/30 09:39:04;;;;;;;7.78;6.05;;;32.60;91.40;;;;;;5034590;28;20178;-84
2022/06/30 09:41:32;;;;;;;8.38;5.65;;;32.30;91.70;;;;;;5035724;28;20177;-85
2022/06/30 09:43:58;;;;;;;7.68;5.85;;;32.30;92.30;;;;;;5034854;28;20217;-86
2022/06/30 09:46:24;;;;;;;7.95;6.90;;;31.50;91.80;;;;;;5035943;28;20170;-85
2022/06/30 09:48:50;;;;;;;7.85;6.45;;;30.50;91.80;;;;;;5047158;28;20173;-84
2022/06/30 09:51:17;;;;;;;10.43;6.63;;;30.80;91.70;;;;;;5048687;28;20170;-84
2022/06/30 09:54:03;;;;;;;10.40;6.50;;;30.80;91.60;;;;;;5049212;28;20270;-84
2022/06/30 09:56:29;;;;;;;8.68;6.55;;;30.70;92.00;;;;;;5050674;28;20185;-85
2022/06/30 09:58:54;;;;;;;20.08;6.70;;;30.50;91.80;;;;;;5046684;28;20174;-85
2022/06/30 10:01:20;;;;;;;10.07;6.63;;;29.70;92.50;;;;;;5038516;28;20169;-85
2022/06/30 10:04:01;;;;;;;7.47;6.50;;;29.40;93.40;;;;;;5038973;28;20202;-85
2022/06/30 10:06:27;;;;;;;8.55;6.30;;;29.30;93.30;;;;;;5039788;28;20347;-85
2022/06/30 10:08:57;;;;;;;34.42;6.72;;;29.40;92.80;;;;;;5039711;28;20178;-85
2022/06/30 10:11:24;;;;;;;11.02;6.28;;;29.60;93.00;;;;;;5038464;28;20173;-84
2022/06/30 10:13:50;;;;;;;14.50;6.07;;;29.70;92.40;;;;;;5039117;28;20607;-83
2022/06/30 10:16:17;;;;;;;16.95;5.68;;;29.40;92.60;;;;;;5046680;28;20174;-84
2022/06/30 10:18:43;;;;;;;7.65;6.22;;;29.40;93.20;;;;;;5045584;28;20196;-84
2022/06/30 10:21:10;;;;;;;9.73;6.25;;;29.40;92.60;;;;;;5047704;28;20178;-83
2022/06/30 10:23:36;;;;;;;9.23;6.28;;;29.70;93.10;;;;;;5048159;28;20204;-83
2022/06/30 10:26:03;;;;;;;7.70;6.43;;;30.00;93.60;;;;;;5045886;28;20210;-84
2022/06/30 10:28:30;;;;;;;10.65;5.93;;;30.50;92.90;;;;;;5034603;28;20534;-84
2022/06/30 10:31:08;;;;;;;5.88;4.70;;;30.50;93.50;;;;;;5033505;28;20194;-84
2022/06/30 10:34:00;;;;;;;9.75;5.55;;;29.80;90.60;;;;;;5033916;28;20221;-84
2022/06/30 10:36:34;;;;;;;6.47;5.63;;;29.40;92.30;;;;;;5034071;28;20253;-84
2022/06/30 10:39:24;;;;;;;6.65;5.15;;;29.30;91.80;;;;;;5033515;28;20177;-83
2022/06/30 10:41:50;;;;;;;9.73;4.47;;;30.80;92.00;;;;;;5005787;28;20194;-85
2022/06/30 10:44:27;;;;;;;4.40;3.47;;;31.90;90.00;;;;;;5035578;28;20205;-86
2022/06/30 10:46:55;;;;;;;6.80;4.00;;;32.40;88.00;;;;;;5033270;28;20281;-78
2022/06/30 10:49:22;;;;;;;11.20;4.90;;;30.80;88.80;;;;;;5028736;28;20225;-77
2022/06/30 10:51:48;;;;;;;7.63;4.43;;;31.60;89.20;;;;;;5029733;28;20269;-78
2022/06/30 10:54:34;;;;;;;7.15;4.50;;;32.30;88.60;;;;;;5030828;28;20249;-78
2022/06/30 10:57:01;;;;;;;5.65;3.90;;;32.30;87.30;;;;;;5030501;28;20185;-77
2022/06/30 10:59:28;;;;;;;5.43;3.85;;;32.50;85.50;;;;;;5028885;28;20181;-79
2022/06/30 11:02:13;;;;;;;4.70;3.85;;;32.80;87.10;;;;;;5030038;28;20173;-78
2022/06/30 11:04:44;;;;;;;7.30;3.95;;;32.50;85.50;;;;;;5030702;28;20280;-79
2022/06/30 11:07:14;;;;;;;4.15;3.75;;;31.80;86.00;;;;;;5032097;28;20174;-81
2022/06/30 11:10:00;;;;;;;4.53;3.85;;;31.40;86.50;;;;;;5033978;28;20159;-80
2022/06/30 11:12:31;;;;;;;3.95;3.63;;;31.70;88.10;;;;;;5032965;28;20198;-80
2022/06/30 11:14:58;;;;;;;3.67;3.30;;;32.20;82.90;;;;;;5033512;28;20210;-81
2022/06/30 11:17:27;;;;;;;6.75;3.33;;;32.80;79.50;;;;;;5033053;28;20216;-83
2022/06/30 11:20:08;;;;;;;8.40;3.40;;;32.20;80.00;;;;;;5032471;28;20177;-83
2022/06/30 11:22:34;;;;;;;5.60;3.20;;;33.20;81.50;;;;;;5033124;28;20688;-80
2022/06/30 11:25:08;;;;;;;3.40;3.00;;;33.20;79.20;;;;;;5036009;28;20866;-80
2022/06/30 11:27:36;;;;;;;3.58;3.28;;;33.60;79.00;;;;;;5036556;28;20781;-80
2022/06/30 11:30:07;;;;;;;3.58;3.35;;;33.80;77.80;;;;;;5037004;28;20228;-82
2022/06/30 11:32:33;;;;;;;5.88;3.58;;;33.70;78.90;;;;;;5038233;28;20218;-82
2022/06/30 11:34:59;;;;;;;5.80;3.33;;;33.70;78.90;;;;;;5037606;28;20181;-82
2022/06/30 11:37:30;;;;;;;4.70;3.35;;;32.70;82.20;;;;;;5037527;28;20257;-81
2022/06/30 11:40:03;;;;;;;6.20;3.85;;;32.10;82.00;;;;;;5039124;28;20229;-81
2022/06/30 11:42:31;;;;;;;4.72;3.40;;;32.10;82.30;;;;;;5037523;28;20241;-80
2022/06/30 11:44:56;;;;;;;5.93;3.97;;;31.50;79.70;;;;;;5036070;28;20225;-83
2022/06/30 11:47:23;;;;;;;4.43;3.95;;;31.10;81.30;;;;;;5036539;28;20224;-80
2022/06/30 11:49:58;;;;;;;5.10;4.25;;;31.00;83.70;;;;;;5036633;28;20188;-82
2022/06/30 11:52:34;;;;;;;5.80;4.00;;;31.00;83.50;;;;;;5036956;28;20194;-81
2022/06/30 11:55:19;;;;;;;3.97;3.67;;;30.90;84.20;;;;;;5036808;28;20183;-81
2022/06/30 11:57:46;;;;;;;4.18;3.88;;;30.80;83.60;;;;;;5036773;28;20627;-81
2022/06/30 12:00:27;;;;;;;8.07;3.90;;;30.50;82.20;;;;;;5036294;28;20178;-81
2022/06/30 12:02:55;;;;;;;6.47;4.15;;;30.70;83.10;;;;;;5037701;28;20200;-81
2022/06/30 12:05:23;;;;;;;10.23;3.90;;;30.50;82.80;;;;;;5037766;28;20705;-81
2022/06/30 12:07:49;;;;;;;11.57;4.18;;;30.20;84.60;;;;;;5038165;28;20166;-82
2022/06/30 12:10:18;;;;;;;8.13;3.95;;;30.50;83.30;;;;;;5037952;28;20166;-81
2022/06/30 12:12:45;;;;;;;3.88;3.58;;;30.50;85.60;;;;;;5037842;28;20194;-82
2022/06/30 12:15:14;;;;;;;4.25;3.92;;;30.00;81.50;;;;;;5036936;28;20177;-82
2022/06/30 12:17:41;;;;;;;6.60;3.90;;;30.30;82.60;;;;;;5037601;28;20170;-82
2022/06/30 12:20:09;;;;;;;11.15;3.60;;;30.40;82.70;;;;;;5037537;28;20178;-81
2022/06/30 12:22:40;;;;;;;7.10;3.78;;;30.40;81.20;;;;;;5037498;28;20190;-80
2022/06/30 12:25:07;;;;;;;3.92;3.33;;;30.60;82.10;;;;;;5038610;28;20536;-81
2022/06/30 12:27:39;;;;;;;3.83;3.38;;;30.70;81.90;;;;;;5038501;28;20253;-83
2022/06/30 12:30:11;;;;;;;5.82;3.85;;;31.10;81.50;;;;;;5035731;28;20166;-81
2022/06/30 12:32:37;;;;;;;4.45;3.63;;;30.70;80.10;;;;;;5037633;28;20190;-81
2022/06/30 12:35:06;;;;;;;3.63;3.33;;;30.70;78.90;;;;;;5038543;28;20178;-81
2022/06/30 12:37:38;;;;;;;10.73;4.43;;;30.50;79.60;;;;;;5037462;28;20197;-81
2022/06/30 12:40:08;;;;;;;5.35;3.50;;;30.20;79.70;;;;;;5037473;28;20193;-81
2022/06/30 12:42:53;;;;;;;6.90;3.72;;;30.40;80.30;;;;;;5038907;28;20629;-81
2022/06/30 12:45:50;;;;;;;9.02;3.75;;;30.50;80.50;;;;;;5034256;28;20206;-84
2022/06/30 12:48:50;;;;;;;5.35;4.05;;;30.40;79.90;;;;;;5034745;28;20240;-82
2022/06/30 12:51:39;;;;;;;3.75;3.45;;;30.60;78.80;;;;;;5034300;28;20201;-82
2022/06/30 12:54:11;;;;;;;6.65;3.88;;;30.50;80.40;;;;;;5033877;28;20213;-83
2022/06/30 12:56:39;;;;;;;6.28;3.65;;;30.80;81.70;;;;;;5033892;28;20170;-82
2022/06/30 12:59:09;;;;;;;4.68;3.38;;;30.90;80.40;;;;;;5033099;28;20537;-82
2022/06/30 13:01:42;;;;;;;5.00;3.65;;;31.10;79.10;;;;;;5032573;28;20246;-81